createdAt,value
2023-05-21T00:11:21.329Z,964.94
2023-05-21T00:26:23.366Z,964.74
2023-05-21T00:41:25.492Z,964.61
2023-05-21T00:56:27.582Z,964.25
2023-05-21T01:11:29.670Z,964.2
2023-05-21T01:26:31.702Z,964.6
2023-05-21T01:41:33.706Z,964.87
2023-05-21T01:56:35.749Z,964.72
2023-05-21T02:11:37.858Z,964.84
2023-05-21T02:26:39.946Z,964.96
2023-05-21T02:41:42.004Z,964.96
2023-05-21T02:56:44.081Z,964.77
2023-05-21T03:11:46.112Z,964.85
2023-05-21T03:26:48.269Z,965.16
2023-05-21T03:41:50.383Z,965.88
2023-05-21T03:56:52.458Z,966
2023-05-21T04:11:54.511Z,966.41
2023-05-21T04:26:56.561Z,966.84
2023-05-21T04:41:58.736Z,967.2
2023-05-21T04:57:01.563Z,967.59
2023-05-21T05:12:03.618Z,967.07
2023-05-21T05:27:05.791Z,966.77
2023-05-21T05:42:07.923Z,967.25
2023-05-21T05:57:10.058Z,967.11
2023-05-21T06:12:14.912Z,966.96
2023-05-21T06:27:17.264Z,966.93
2023-05-21T06:42:19.333Z,966.53
2023-05-21T06:57:21.374Z,966.58
2023-05-21T07:12:23.486Z,967.03
2023-05-21T07:27:26.227Z,966.11
2023-05-21T07:42:28.473Z,965.92
2023-05-21T07:57:30.526Z,965.55
2023-05-21T08:12:32.686Z,965.49
2023-05-21T08:27:34.783Z,965.5
2023-05-21T08:42:37.756Z,965.54
2023-05-21T08:57:39.949Z,965.58
2023-05-21T09:12:42.034Z,965.59
2023-05-21T09:27:44.139Z,965.71
2023-05-21T09:42:46.217Z,965.52
2023-05-21T09:57:49.903Z,965.67
2023-05-21T10:12:53.036Z,965.85
2023-05-21T10:27:55.043Z,965.82
2023-05-21T10:42:57.147Z,965.88
2023-05-21T10:57:59.208Z,966.09
2023-05-21T11:13:01.330Z,966.12
2023-05-21T11:28:03.405Z,966.02
2023-05-21T11:43:05.485Z,966.05
2023-05-21T11:58:07.592Z,966.16
2023-05-21T12:13:09.716Z,966.26
2023-05-21T12:28:11.816Z,966.45
2023-05-21T12:43:13.898Z,966.42
2023-05-21T12:58:16.048Z,966.42
2023-05-21T13:13:18.148Z,966.3
2023-05-21T13:28:20.179Z,966.11
2023-05-21T13:43:22.221Z,965.95
2023-05-21T13:58:24.283Z,965.61
2023-05-21T14:13:26.386Z,965.86
2023-05-21T14:28:28.538Z,965.6
2023-05-21T14:43:30.578Z,965.06
2023-05-21T14:58:32.741Z,965.28
2023-05-21T15:13:34.831Z,965.71
2023-05-21T15:28:36.865Z,964.43
2023-05-21T15:43:38.954Z,965.41
2023-05-21T15:58:41.106Z,966.3
2023-05-21T16:13:43.147Z,966.62
2023-05-21T16:28:45.229Z,966.65
2023-05-21T16:43:47.319Z,965.76
2023-05-21T16:58:49.432Z,965.72
2023-05-21T17:13:51.539Z,965.43
2023-05-21T17:28:53.643Z,965.18
2023-05-21T17:43:55.704Z,964.8
2023-05-21T17:58:57.824Z,964.66
2023-05-21T18:13:59.914Z,964.61
2023-05-21T18:29:01.976Z,964.25
2023-05-21T18:44:04.031Z,963.94
2023-05-21T18:59:06.230Z,963.73
2023-05-21T19:14:08.333Z,963.52
2023-05-21T19:29:10.439Z,963.1
2023-05-21T19:44:12.505Z,962.74
2023-05-21T19:59:14.667Z,962.4
2023-05-21T20:14:16.732Z,962.08
2023-05-21T20:29:18.836Z,961.89
2023-05-21T20:44:21.030Z,961.47
2023-05-21T20:59:23.106Z,960.98
2023-05-21T21:14:25.145Z,960.6
2023-05-21T21:29:27.196Z,960.14
2023-05-21T21:44:29.276Z,959.84
2023-05-21T21:59:31.396Z,959.72
2023-05-21T22:14:33.583Z,959.73
2023-05-21T22:29:35.723Z,960.17
2023-05-21T22:44:37.930Z,960.31
2023-05-21T22:59:40.062Z,960.33
2023-05-21T23:14:42.127Z,960.85
2023-05-21T23:29:44.337Z,960.29
2023-05-21T23:44:46.559Z,960.1
2023-05-21T23:59:48.743Z,960.02
